sensor_id;sensor_type;location;lat;lon;timestamp;temperature;humidity
59505;DHT22;45321;53.200;5.814;2023-04-24T00:01:44;12.80;87.00
59505;DHT22;45321;53.200;5.814;2023-04-24T00:04:09;12.80;87.10
59505;DHT22;45321;53.200;5.814;2023-04-24T00:06:37;12.80;87.00
59505;DHT22;45321;53.200;5.814;2023-04-24T00:09:05;12.80;86.90
59505;DHT22;45321;53.200;5.814;2023-04-24T00:11:31;12.80;86.80
59505;DHT22;45321;53.200;5.814;2023-04-24T00:13:57;12.80;86.80
59505;DHT22;45321;53.200;5.814;2023-04-24T00:16:23;12.80;86.90
59505;DHT22;45321;53.200;5.814;2023-04-24T00:18:49;12.80;87.00
59505;DHT22;45321;53.200;5.814;2023-04-24T00:21:15;12.80;87.20
59505;DHT22;45321;53.200;5.814;2023-04-24T00:23:43;12.90;87.20
59505;DHT22;45321;53.200;5.814;2023-04-24T00:26:10;12.80;87.30
59505;DHT22;45321;53.200;5.814;2023-04-24T00:28:35;12.90;87.10
59505;DHT22;45321;53.200;5.814;2023-04-24T00:31:01;12.90;87.20
59505;DHT22;45321;53.200;5.814;2023-04-24T00:33:27;12.90;87.20
59505;DHT22;45321;53.200;5.814;2023-04-24T00:35:53;12.80;87.00
59505;DHT22;45321;53.200;5.814;2023-04-24T00:38:19;12.80;87.10
59505;DHT22;45321;53.200;5.814;2023-04-24T00:40:44;12.80;87.10
59505;DHT22;45321;53.200;5.814;2023-04-24T00:43:11;12.80;87.30
59505;DHT22;45321;53.200;5.814;2023-04-24T00:45:37;12.80;87.20
59505;DHT22;45321;53.200;5.814;2023-04-24T00:48:03;12.90;86.60
59505;DHT22;45321;53.200;5.814;2023-04-24T00:50:30;12.90;87.00
59505;DHT22;45321;53.200;5.814;2023-04-24T00:52:57;12.90;87.10
59505;DHT22;45321;53.200;5.814;2023-04-24T00:55:22;12.90;87.30
59505;DHT22;45321;53.200;5.814;2023-04-24T00:57:50;12.90;87.10
59505;DHT22;45321;53.200;5.814;2023-04-24T01:00:17;12.90;87.30
59505;DHT22;45321;53.200;5.814;2023-04-24T01:02:46;12.90;87.10
59505;DHT22;45321;53.200;5.814;2023-04-24T01:05:13;12.90;87.40
59505;DHT22;45321;53.200;5.814;2023-04-24T01:07:44;12.90;87.10
59505;DHT22;45321;53.200;5.814;2023-04-24T01:10:11;12.90;86.80
59505;DHT22;45321;53.200;5.814;2023-04-24T01:12:38;12.90;87.00
59505;DHT22;45321;53.200;5.814;2023-04-24T01:15:04;12.80;86.60
59505;DHT22;45321;53.200;5.814;2023-04-24T01:17:32;12.90;86.90
59505;DHT22;45321;53.200;5.814;2023-04-24T01:19:59;12.90;86.80
59505;DHT22;45321;53.200;5.814;2023-04-24T01:22:26;12.90;86.40
59505;DHT22;45321;53.200;5.814;2023-04-24T01:24:52;12.90;86.60
59505;DHT22;45321;53.200;5.814;2023-04-24T01:27:19;12.90;86.70
59505;DHT22;45321;53.200;5.814;2023-04-24T01:29:45;12.90;86.50
59505;DHT22;45321;53.200;5.814;2023-04-24T01:32:13;12.90;86.10
59505;DHT22;45321;53.200;5.814;2023-04-24T01:34:39;12.90;85.90
59505;DHT22;45321;53.200;5.814;2023-04-24T01:37:05;13.00;86.00
59505;DHT22;45321;53.200;5.814;2023-04-24T01:39:31;13.00;85.80
59505;DHT22;45321;53.200;5.814;2023-04-24T01:41:59;13.00;85.50
59505;DHT22;45321;53.200;5.814;2023-04-24T01:44:26;12.90;86.00
59505;DHT22;45321;53.200;5.814;2023-04-24T01:46:52;12.90;86.40
59505;DHT22;45321;53.200;5.814;2023-04-24T01:49:19;12.80;86.10
59505;DHT22;45321;53.200;5.814;2023-04-24T01:51:45;12.80;86.10
59505;DHT22;45321;53.200;5.814;2023-04-24T01:54:11;12.80;85.50
59505;DHT22;45321;53.200;5.814;2023-04-24T01:56:41;12.80;86.00
59505;DHT22;45321;53.200;5.814;2023-04-24T01:59:10;12.80;86.30
59505;DHT22;45321;53.200;5.814;2023-04-24T02:01:37;12.80;86.10
59505;DHT22;45321;53.200;5.814;2023-04-24T02:04:03;12.80;85.70
59505;DHT22;45321;53.200;5.814;2023-04-24T02:06:29;12.80;85.80
59505;DHT22;45321;53.200;5.814;2023-04-24T02:08:57;12.80;85.80
59505;DHT22;45321;53.200;5.814;2023-04-24T02:11:23;12.80;85.70
59505;DHT22;45321;53.200;5.814;2023-04-24T02:13:49;12.80;85.40
59505;DHT22;45321;53.200;5.814;2023-04-24T02:16:15;12.80;85.90
59505;DHT22;45321;53.200;5.814;2023-04-24T02:18:41;12.80;85.90
59505;DHT22;45321;53.200;5.814;2023-04-24T02:21:07;12.80;85.60
59505;DHT22;45321;53.200;5.814;2023-04-24T02:23:33;12.80;85.50
59505;DHT22;45321;53.200;5.814;2023-04-24T02:25:58;12.80;85.50
59505;DHT22;45321;53.200;5.814;2023-04-24T02:28:24;12.80;85.30
59505;DHT22;45321;53.200;5.814;2023-04-24T02:30:50;12.80;86.00
59505;DHT22;45321;53.200;5.814;2023-04-24T02:33:16;12.80;85.90
59505;DHT22;45321;53.200;5.814;2023-04-24T02:35:42;12.80;85.90
59505;DHT22;45321;53.200;5.814;2023-04-24T02:38:08;12.80;85.60
59505;DHT22;45321;53.200;5.814;2023-04-24T02:40:34;12.70;85.80
59505;DHT22;45321;53.200;5.814;2023-04-24T02:42:59;12.60;85.60
59505;DHT22;45321;53.200;5.814;2023-04-24T02:45:25;12.60;85.80
59505;DHT22;45321;53.200;5.814;2023-04-24T02:47:51;12.50;85.90
59505;DHT22;45321;53.200;5.814;2023-04-24T02:50:17;12.50;86.00
59505;DHT22;45321;53.200;5.814;2023-04-24T02:52:43;12.40;86.00
59505;DHT22;45321;53.200;5.814;2023-04-24T02:55:08;12.30;86.30
59505;DHT22;45321;53.200;5.814;2023-04-24T02:57:34;12.30;86.30
59505;DHT22;45321;53.200;5.814;2023-04-24T03:00:00;12.30;86.30
59505;DHT22;45321;53.200;5.814;2023-04-24T03:02:26;12.40;86.20
59505;DHT22;45321;53.200;5.814;2023-04-24T03:04:52;12.40;86.00
59505;DHT22;45321;53.200;5.814;2023-04-24T03:07:18;12.40;86.00
59505;DHT22;45321;53.200;5.814;2023-04-24T03:09:46;12.30;86.10
59505;DHT22;45321;53.200;5.814;2023-04-24T03:12:13;12.30;86.10
59505;DHT22;45321;53.200;5.814;2023-04-24T03:14:38;12.30;85.90
59505;DHT22;45321;53.200;5.814;2023-04-24T03:17:04;12.30;85.90
59505;DHT22;45321;53.200;5.814;2023-04-24T03:19:30;12.30;86.20
59505;DHT22;45321;53.200;5.814;2023-04-24T03:21:56;12.30;86.20
59505;DHT22;45321;53.200;5.814;2023-04-24T03:24:22;12.20;86.10
59505;DHT22;45321;53.200;5.814;2023-04-24T03:26:48;12.20;86.60
59505;DHT22;45321;53.200;5.814;2023-04-24T03:29:13;12.20;86.30
59505;DHT22;45321;53.200;5.814;2023-04-24T03:31:39;12.20;86.40
59505;DHT22;45321;53.200;5.814;2023-04-24T03:34:05;12.20;86.60
59505;DHT22;45321;53.200;5.814;2023-04-24T03:36:30;12.10;86.80
59505;DHT22;45321;53.200;5.814;2023-04-24T03:38:57;12.10;86.40
59505;DHT22;45321;53.200;5.814;2023-04-24T03:41:22;12.10;86.30
59505;DHT22;45321;53.200;5.814;2023-04-24T03:43:48;12.10;86.60
59505;DHT22;45321;53.200;5.814;2023-04-24T03:46:14;12.10;86.30
59505;DHT22;45321;53.200;5.814;2023-04-24T03:48:40;12.10;86.70
59505;DHT22;45321;53.200;5.814;2023-04-24T03:51:06;12.00;86.50
59505;DHT22;45321;53.200;5.814;2023-04-24T03:53:32;12.00;86.30
59505;DHT22;45321;53.200;5.814;2023-04-24T03:55:57;12.00;85.90
59505;DHT22;45321;53.200;5.814;2023-04-24T03:58:23;12.00;86.00
59505;DHT22;45321;53.200;5.814;2023-04-24T04:00:49;12.10;86.10
59505;DHT22;45321;53.200;5.814;2023-04-24T04:03:15;12.00;85.70
59505;DHT22;45321;53.200;5.814;2023-04-24T04:05:41;12.00;86.10
59505;DHT22;45321;53.200;5.814;2023-04-24T04:08:07;12.00;85.90
59505;DHT22;45321;53.200;5.814;2023-04-24T04:10:33;12.00;86.00
59505;DHT22;45321;53.200;5.814;2023-04-24T04:12:58;12.00;85.70
59505;DHT22;45321;53.200;5.814;2023-04-24T04:15:24;12.00;85.90
59505;DHT22;45321;53.200;5.814;2023-04-24T04:17:50;11.90;86.00
59505;DHT22;45321;53.200;5.814;2023-04-24T04:20:15;12.00;85.50
59505;DHT22;45321;53.200;5.814;2023-04-24T04:22:41;11.90;85.50
59505;DHT22;45321;53.200;5.814;2023-04-24T04:25:07;11.90;85.90
59505;DHT22;45321;53.200;5.814;2023-04-24T04:27:34;11.90;85.80
59505;DHT22;45321;53.200;5.814;2023-04-24T04:30:00;11.90;85.60
59505;DHT22;45321;53.200;5.814;2023-04-24T04:32:36;11.80;85.40
59505;DHT22;45321;53.200;5.814;2023-04-24T04:35:03;11.80;85.50
59505;DHT22;45321;53.200;5.814;2023-04-24T04:37:33;11.70;85.80
59505;DHT22;45321;53.200;5.814;2023-04-24T04:39:59;11.70;86.00
59505;DHT22;45321;53.200;5.814;2023-04-24T04:42:25;11.70;86.50
59505;DHT22;45321;53.200;5.814;2023-04-24T04:44:53;11.70;86.60
59505;DHT22;45321;53.200;5.814;2023-04-24T04:47:21;11.70;86.10
59505;DHT22;45321;53.200;5.814;2023-04-24T04:49:48;11.60;86.10
59505;DHT22;45321;53.200;5.814;2023-04-24T04:52:14;11.60;86.40
59505;DHT22;45321;53.200;5.814;2023-04-24T04:54:42;11.60;86.50
59505;DHT22;45321;53.200;5.814;2023-04-24T04:57:07;11.60;86.40
59505;DHT22;45321;53.200;5.814;2023-04-24T04:59:33;11.60;86.10
59505;DHT22;45321;53.200;5.814;2023-04-24T05:01:59;11.60;86.10
59505;DHT22;45321;53.200;5.814;2023-04-24T05:04:25;11.60;85.90
59505;DHT22;45321;53.200;5.814;2023-04-24T05:06:52;11.60;85.70
59505;DHT22;45321;53.200;5.814;2023-04-24T05:09:18;11.50;85.60
59505;DHT22;45321;53.200;5.814;2023-04-24T05:11:44;11.50;85.60
59505;DHT22;45321;53.200;5.814;2023-04-24T05:14:10;11.50;86.10
59505;DHT22;45321;53.200;5.814;2023-04-24T05:16:35;11.50;85.70
59505;DHT22;45321;53.200;5.814;2023-04-24T05:19:02;11.60;86.20
59505;DHT22;45321;53.200;5.814;2023-04-24T05:21:28;11.60;86.00
59505;DHT22;45321;53.200;5.814;2023-04-24T05:23:54;11.60;85.90
59505;DHT22;45321;53.200;5.814;2023-04-24T05:26:20;11.60;85.80
59505;DHT22;45321;53.200;5.814;2023-04-24T05:28:49;11.60;85.50
59505;DHT22;45321;53.200;5.814;2023-04-24T05:31:15;11.60;85.30
59505;DHT22;45321;53.200;5.814;2023-04-24T05:33:43;11.60;85.50
59505;DHT22;45321;53.200;5.814;2023-04-24T05:36:08;11.60;85.70
59505;DHT22;45321;53.200;5.814;2023-04-24T05:38:34;11.60;85.70
59505;DHT22;45321;53.200;5.814;2023-04-24T05:41:00;11.60;85.40
59505;DHT22;45321;53.200;5.814;2023-04-24T05:43:26;11.60;85.40
59505;DHT22;45321;53.200;5.814;2023-04-24T05:45:52;11.60;85.20
59505;DHT22;45321;53.200;5.814;2023-04-24T05:48:19;11.50;85.50
59505;DHT22;45321;53.200;5.814;2023-04-24T05:50:44;11.60;85.50
59505;DHT22;45321;53.200;5.814;2023-04-24T05:53:10;11.50;85.70
59505;DHT22;45321;53.200;5.814;2023-04-24T05:55:36;11.50;85.10
59505;DHT22;45321;53.200;5.814;2023-04-24T05:58:02;11.50;85.60
59505;DHT22;45321;53.200;5.814;2023-04-24T06:00:28;11.50;85.50
59505;DHT22;45321;53.200;5.814;2023-04-24T06:02:54;11.50;85.70
59505;DHT22;45321;53.200;5.814;2023-04-24T06:05:20;11.50;85.40
59505;DHT22;45321;53.200;5.814;2023-04-24T06:07:46;11.50;85.30
59505;DHT22;45321;53.200;5.814;2023-04-24T06:10:12;11.50;86.00
59505;DHT22;45321;53.200;5.814;2023-04-24T06:12:38;11.50;85.60
59505;DHT22;45321;53.200;5.814;2023-04-24T06:15:04;11.50;86.00
59505;DHT22;45321;53.200;5.814;2023-04-24T06:17:30;11.50;85.50
59505;DHT22;45321;53.200;5.814;2023-04-24T06:19:56;11.50;85.70
59505;DHT22;45321;53.200;5.814;2023-04-24T06:22:22;11.50;85.50
59505;DHT22;45321;53.200;5.814;2023-04-24T06:24:47;11.50;85.30
59505;DHT22;45321;53.200;5.814;2023-04-24T06:27:14;11.50;84.90
59505;DHT22;45321;53.200;5.814;2023-04-24T06:29:40;11.50;84.80
59505;DHT22;45321;53.200;5.814;2023-04-24T06:32:05;11.40;84.80
59505;DHT22;45321;53.200;5.814;2023-04-24T06:34:31;11.40;84.80
59505;DHT22;45321;53.200;5.814;2023-04-24T06:36:59;11.40;84.90
59505;DHT22;45321;53.200;5.814;2023-04-24T06:39:25;11.30;84.80
59505;DHT22;45321;53.200;5.814;2023-04-24T06:41:51;11.30;84.80
59505;DHT22;45321;53.200;5.814;2023-04-24T06:44:17;11.30;84.40
59505;DHT22;45321;53.200;5.814;2023-04-24T06:46:42;11.30;84.50
59505;DHT22;45321;53.200;5.814;2023-04-24T06:49:09;11.20;84.30
59505;DHT22;45321;53.200;5.814;2023-04-24T06:51:34;11.20;84.20
59505;DHT22;45321;53.200;5.814;2023-04-24T06:54:00;11.20;84.60
59505;DHT22;45321;53.200;5.814;2023-04-24T06:56:27;11.20;84.70
59505;DHT22;45321;53.200;5.814;2023-04-24T06:58:54;11.10;84.70
59505;DHT22;45321;53.200;5.814;2023-04-24T07:01:20;11.10;84.50
59505;DHT22;45321;53.200;5.814;2023-04-24T07:03:46;11.10;84.20
59505;DHT22;45321;53.200;5.814;2023-04-24T07:06:11;11.10;84.00
59505;DHT22;45321;53.200;5.814;2023-04-24T07:08:38;11.10;83.80
59505;DHT22;45321;53.200;5.814;2023-04-24T07:11:04;11.00;83.80
59505;DHT22;45321;53.200;5.814;2023-04-24T07:13:31;11.00;83.70
59505;DHT22;45321;53.200;5.814;2023-04-24T07:15:57;11.00;84.00
59505;DHT22;45321;53.200;5.814;2023-04-24T07:18:22;11.00;83.60
59505;DHT22;45321;53.200;5.814;2023-04-24T07:20:48;11.00;84.00
59505;DHT22;45321;53.200;5.814;2023-04-24T07:23:16;11.00;83.70
59505;DHT22;45321;53.200;5.814;2023-04-24T07:25:42;11.00;83.60
59505;DHT22;45321;53.200;5.814;2023-04-24T07:28:08;11.00;83.30
59505;DHT22;45321;53.200;5.814;2023-04-24T07:30:34;11.00;83.20
59505;DHT22;45321;53.200;5.814;2023-04-24T07:32:59;10.90;83.20
59505;DHT22;45321;53.200;5.814;2023-04-24T07:35:26;10.90;82.90
59505;DHT22;45321;53.200;5.814;2023-04-24T07:37:55;10.90;83.10
59505;DHT22;45321;53.200;5.814;2023-04-24T07:40:21;10.80;82.80
59505;DHT22;45321;53.200;5.814;2023-04-24T07:42:48;10.80;82.60
59505;DHT22;45321;53.200;5.814;2023-04-24T07:45:16;10.80;82.40
59505;DHT22;45321;53.200;5.814;2023-04-24T07:47:42;10.90;82.10
59505;DHT22;45321;53.200;5.814;2023-04-24T07:50:11;10.90;82.20
59505;DHT22;45321;53.200;5.814;2023-04-24T07:52:38;10.90;82.20
59505;DHT22;45321;53.200;5.814;2023-04-24T07:55:04;10.90;82.10
59505;DHT22;45321;53.200;5.814;2023-04-24T07:57:30;10.90;82.20
59505;DHT22;45321;53.200;5.814;2023-04-24T07:59:56;11.00;82.20
59505;DHT22;45321;53.200;5.814;2023-04-24T08:02:22;11.00;82.20
59505;DHT22;45321;53.200;5.814;2023-04-24T08:04:52;11.00;82.20
59505;DHT22;45321;53.200;5.814;2023-04-24T08:07:19;11.00;82.20
59505;DHT22;45321;53.200;5.814;2023-04-24T08:09:45;11.00;82.20
59505;DHT22;45321;53.200;5.814;2023-04-24T08:12:11;11.10;82.30
59505;DHT22;45321;53.200;5.814;2023-04-24T08:14:37;11.10;82.50
59505;DHT22;45321;53.200;5.814;2023-04-24T08:17:03;11.20;82.10
59505;DHT22;45321;53.200;5.814;2023-04-24T08:19:29;11.30;82.30
59505;DHT22;45321;53.200;5.814;2023-04-24T08:21:55;11.30;81.90
59505;DHT22;45321;53.200;5.814;2023-04-24T08:24:21;11.30;81.80
59505;DHT22;45321;53.200;5.814;2023-04-24T08:26:47;11.30;81.40
59505;DHT22;45321;53.200;5.814;2023-04-24T08:29:16;11.30;81.20
59505;DHT22;45321;53.200;5.814;2023-04-24T08:31:41;11.30;81.40
59505;DHT22;45321;53.200;5.814;2023-04-24T08:34:07;11.30;81.50
59505;DHT22;45321;53.200;5.814;2023-04-24T08:36:33;11.30;81.10
59505;DHT22;45321;53.200;5.814;2023-04-24T08:38:59;11.30;80.70
59505;DHT22;45321;53.200;5.814;2023-04-24T08:41:24;11.30;80.40
59505;DHT22;45321;53.200;5.814;2023-04-24T08:43:52;11.30;80.50
59505;DHT22;45321;53.200;5.814;2023-04-24T08:46:19;11.40;80.30
59505;DHT22;45321;53.200;5.814;2023-04-24T08:48:45;11.50;79.70
59505;DHT22;45321;53.200;5.814;2023-04-24T08:51:11;11.50;79.00
59505;DHT22;45321;53.200;5.814;2023-04-24T08:53:37;11.50;79.20
59505;DHT22;45321;53.200;5.814;2023-04-24T08:56:03;11.60;78.50
59505;DHT22;45321;53.200;5.814;2023-04-24T08:58:32;11.70;78.50
59505;DHT22;45321;53.200;5.814;2023-04-24T09:00:58;11.80;78.20
59505;DHT22;45321;53.200;5.814;2023-04-24T09:03:28;11.90;76.90
59505;DHT22;45321;53.200;5.814;2023-04-24T09:05:55;12.00;76.80
59505;DHT22;45321;53.200;5.814;2023-04-24T09:08:24;12.20;77.00
59505;DHT22;45321;53.200;5.814;2023-04-24T09:10:50;12.30;76.50
59505;DHT22;45321;53.200;5.814;2023-04-24T09:13:16;12.30;76.70
59505;DHT22;45321;53.200;5.814;2023-04-24T09:15:42;12.40;76.70
59505;DHT22;45321;53.200;5.814;2023-04-24T09:18:08;12.40;76.60
59505;DHT22;45321;53.200;5.814;2023-04-24T09:20:34;12.50;76.50
59505;DHT22;45321;53.200;5.814;2023-04-24T09:23:01;12.50;75.60
59505;DHT22;45321;53.200;5.814;2023-04-24T09:25:34;12.50;76.00
59505;DHT22;45321;53.200;5.814;2023-04-24T09:28:04;12.50;75.60
59505;DHT22;45321;53.200;5.814;2023-04-24T09:30:32;12.50;75.60
59505;DHT22;45321;53.200;5.814;2023-04-24T09:33:14;12.50;75.40
59505;DHT22;45321;53.200;5.814;2023-04-24T09:35:51;12.40;74.90
59505;DHT22;45321;53.200;5.814;2023-04-24T09:38:17;12.40;74.30
59505;DHT22;45321;53.200;5.814;2023-04-24T09:40:43;12.30;74.70
59505;DHT22;45321;53.200;5.814;2023-04-24T09:43:11;12.30;74.60
59505;DHT22;45321;53.200;5.814;2023-04-24T09:45:39;12.40;74.20
59505;DHT22;45321;53.200;5.814;2023-04-24T09:48:09;12.30;74.30
59505;DHT22;45321;53.200;5.814;2023-04-24T09:50:35;12.40;74.20
59505;DHT22;45321;53.200;5.814;2023-04-24T09:53:02;12.40;74.20
59505;DHT22;45321;53.200;5.814;2023-04-24T09:55:29;12.40;73.90
59505;DHT22;45321;53.200;5.814;2023-04-24T09:58:00;12.30;74.10
59505;DHT22;45321;53.200;5.814;2023-04-24T10:00:29;12.30;74.30
59505;DHT22;45321;53.200;5.814;2023-04-24T10:03:03;12.30;74.10
59505;DHT22;45321;53.200;5.814;2023-04-24T10:05:31;12.20;74.10
59505;DHT22;45321;53.200;5.814;2023-04-24T10:08:05;12.10;73.80
59505;DHT22;45321;53.200;5.814;2023-04-24T10:10:34;12.10;73.90
59505;DHT22;45321;53.200;5.814;2023-04-24T10:13:02;12.10;74.20
59505;DHT22;45321;53.200;5.814;2023-04-24T10:15:28;12.20;73.90
59505;DHT22;45321;53.200;5.814;2023-04-24T10:17:54;12.20;73.00
59505;DHT22;45321;53.200;5.814;2023-04-24T10:20:25;12.30;73.30
59505;DHT22;45321;53.200;5.814;2023-04-24T10:22:53;12.30;72.80
59505;DHT22;45321;53.200;5.814;2023-04-24T10:25:20;12.30;72.60
59505;DHT22;45321;53.200;5.814;2023-04-24T10:27:48;12.40;72.70
59505;DHT22;45321;53.200;5.814;2023-04-24T10:30:15;12.50;72.70
59505;DHT22;45321;53.200;5.814;2023-04-24T10:32:41;12.60;72.80
59505;DHT22;45321;53.200;5.814;2023-04-24T10:35:08;12.70;72.50
59505;DHT22;45321;53.200;5.814;2023-04-24T10:37:39;12.70;72.00
59505;DHT22;45321;53.200;5.814;2023-04-24T10:40:06;12.60;71.60
59505;DHT22;45321;53.200;5.814;2023-04-24T10:42:33;12.70;71.70
59505;DHT22;45321;53.200;5.814;2023-04-24T10:44:59;12.80;72.00
59505;DHT22;45321;53.200;5.814;2023-04-24T10:47:27;12.80;72.10
59505;DHT22;45321;53.200;5.814;2023-04-24T10:49:53;12.80;71.30
59505;DHT22;45321;53.200;5.814;2023-04-24T10:52:19;12.70;71.20
59505;DHT22;45321;53.200;5.814;2023-04-24T10:54:46;12.60;71.30
59505;DHT22;45321;53.200;5.814;2023-04-24T10:59:54;12.30;71.90
59505;DHT22;45321;53.200;5.814;2023-04-24T11:02:38;12.20;72.00
59505;DHT22;45321;53.200;5.814;2023-04-24T11:05:06;12.00;72.40
59505;DHT22;45321;53.200;5.814;2023-04-24T11:08:09;11.90;71.60
59505;DHT22;45321;53.200;5.814;2023-04-24T11:10:46;11.80;71.70
59505;DHT22;45321;53.200;5.814;2023-04-24T11:13:16;11.80;71.50
59505;DHT22;45321;53.200;5.814;2023-04-24T11:15:42;11.80;71.70
59505;DHT22;45321;53.200;5.814;2023-04-24T11:18:14;11.80;71.80
59505;DHT22;45321;53.200;5.814;2023-04-24T11:20:44;11.70;71.80
59505;DHT22;45321;53.200;5.814;2023-04-24T11:23:12;11.70;71.30
59505;DHT22;45321;53.200;5.814;2023-04-24T11:25:38;11.80;71.40
59505;DHT22;45321;53.200;5.814;2023-04-24T11:28:05;11.80;72.00
59505;DHT22;45321;53.200;5.814;2023-04-24T11:30:32;12.00;71.20
59505;DHT22;45321;53.200;5.814;2023-04-24T11:33:05;12.10;70.80
59505;DHT22;45321;53.200;5.814;2023-04-24T11:35:36;12.20;70.30
59505;DHT22;45321;53.200;5.814;2023-04-24T11:38:04;12.10;70.40
59505;DHT22;45321;53.200;5.814;2023-04-24T11:40:31;12.10;70.80
59505;DHT22;45321;53.200;5.814;2023-04-24T11:43:00;12.10;71.20
59505;DHT22;45321;53.200;5.814;2023-04-24T11:45:27;12.10;71.70
59505;DHT22;45321;53.200;5.814;2023-04-24T11:47:53;12.10;72.00
59505;DHT22;45321;53.200;5.814;2023-04-24T11:50:22;12.00;71.60
59505;DHT22;45321;53.200;5.814;2023-04-24T11:52:49;12.10;72.00
59505;DHT22;45321;53.200;5.814;2023-04-24T11:57:53;12.30;71.40
59505;DHT22;45321;53.200;5.814;2023-04-24T12:00:21;12.50;70.50
59505;DHT22;45321;53.200;5.814;2023-04-24T12:02:49;12.80;69.90
59505;DHT22;45321;53.200;5.814;2023-04-24T12:05:25;13.20;69.40
59505;DHT22;45321;53.200;5.814;2023-04-24T12:07:52;13.40;68.30
59505;DHT22;45321;53.200;5.814;2023-04-24T12:10:27;13.50;67.90
59505;DHT22;45321;53.200;5.814;2023-04-24T12:12:53;13.50;67.10
59505;DHT22;45321;53.200;5.814;2023-04-24T12:15:21;13.50;66.10
59505;DHT22;45321;53.200;5.814;2023-04-24T12:17:47;13.70;66.20
59505;DHT22;45321;53.200;5.814;2023-04-24T12:20:15;13.90;66.10
59505;DHT22;45321;53.200;5.814;2023-04-24T12:22:50;14.20;65.60
59505;DHT22;45321;53.200;5.814;2023-04-24T12:25:17;14.10;63.90
59505;DHT22;45321;53.200;5.814;2023-04-24T12:27:44;13.90;63.90
59505;DHT22;45321;53.200;5.814;2023-04-24T12:30:15;13.80;63.80
59505;DHT22;45321;53.200;5.814;2023-04-24T12:32:45;13.70;64.00
59505;DHT22;45321;53.200;5.814;2023-04-24T12:35:12;13.70;64.20
59505;DHT22;45321;53.200;5.814;2023-04-24T12:37:38;13.70;65.10
59505;DHT22;45321;53.200;5.814;2023-04-24T12:40:12;13.70;64.20
59505;DHT22;45321;53.200;5.814;2023-04-24T12:42:51;13.60;64.00
59505;DHT22;45321;53.200;5.814;2023-04-24T12:45:18;13.50;64.10
59505;DHT22;45321;53.200;5.814;2023-04-24T12:47:45;13.30;64.70
59505;DHT22;45321;53.200;5.814;2023-04-24T12:50:14;13.30;65.00
59505;DHT22;45321;53.200;5.814;2023-04-24T12:52:40;13.20;65.90
59505;DHT22;45321;53.200;5.814;2023-04-24T12:55:07;13.30;66.10
59505;DHT22;45321;53.200;5.814;2023-04-24T12:57:34;13.30;64.70
59505;DHT22;45321;53.200;5.814;2023-04-24T13:00:01;13.30;65.00
59505;DHT22;45321;53.200;5.814;2023-04-24T13:02:30;13.30;65.30
59505;DHT22;45321;53.200;5.814;2023-04-24T13:04:57;13.20;66.00
59505;DHT22;45321;53.200;5.814;2023-04-24T13:07:23;13.10;66.30
59505;DHT22;45321;53.200;5.814;2023-04-24T13:09:50;12.90;67.00
59505;DHT22;45321;53.200;5.814;2023-04-24T13:12:16;12.80;67.60
59505;DHT22;45321;53.200;5.814;2023-04-24T13:14:42;12.70;68.20
59505;DHT22;45321;53.200;5.814;2023-04-24T13:17:08;12.50;68.70
59505;DHT22;45321;53.200;5.814;2023-04-24T13:19:38;12.30;69.10
59505;DHT22;45321;53.200;5.814;2023-04-24T13:22:05;12.30;69.90
59505;DHT22;45321;53.200;5.814;2023-04-24T13:24:31;12.20;70.00
59505;DHT22;45321;53.200;5.814;2023-04-24T13:26:57;12.30;70.20
59505;DHT22;45321;53.200;5.814;2023-04-24T13:29:23;12.30;69.70
59505;DHT22;45321;53.200;5.814;2023-04-24T13:31:50;12.20;70.90
59505;DHT22;45321;53.200;5.814;2023-04-24T13:34:17;12.10;71.50
59505;DHT22;45321;53.200;5.814;2023-04-24T13:36:43;11.90;71.80
59505;DHT22;45321;53.200;5.814;2023-04-24T13:39:10;11.90;71.70
59505;DHT22;45321;53.200;5.814;2023-04-24T13:41:36;11.80;71.50
59505;DHT22;45321;53.200;5.814;2023-04-24T13:44:03;11.90;71.60
59505;DHT22;45321;53.200;5.814;2023-04-24T13:46:29;12.00;71.10
59505;DHT22;45321;53.200;5.814;2023-04-24T13:48:55;12.00;71.00
59505;DHT22;45321;53.200;5.814;2023-04-24T13:51:20;12.10;71.40
59505;DHT22;45321;53.200;5.814;2023-04-24T13:53:46;12.00;73.00
59505;DHT22;45321;53.200;5.814;2023-04-24T13:56:12;11.90;73.90
59505;DHT22;45321;53.200;5.814;2023-04-24T13:58:39;11.80;73.90
59505;DHT22;45321;53.200;5.814;2023-04-24T14:01:05;11.80;74.50
59505;DHT22;45321;53.200;5.814;2023-04-24T14:03:30;11.80;74.30
59505;DHT22;45321;53.200;5.814;2023-04-24T14:05:56;11.70;74.50
59505;DHT22;45321;53.200;5.814;2023-04-24T14:08:22;11.70;74.30
59505;DHT22;45321;53.200;5.814;2023-04-24T14:10:48;11.70;73.90
59505;DHT22;45321;53.200;5.814;2023-04-24T14:13:14;11.60;74.00
59505;DHT22;45321;53.200;5.814;2023-04-24T14:15:40;11.60;74.30
59505;DHT22;45321;53.200;5.814;2023-04-24T14:18:06;11.50;74.60
59505;DHT22;45321;53.200;5.814;2023-04-24T14:20:31;11.50;74.10
59505;DHT22;45321;53.200;5.814;2023-04-24T14:22:57;11.50;73.60
59505;DHT22;45321;53.200;5.814;2023-04-24T14:25:26;11.40;73.70
59505;DHT22;45321;53.200;5.814;2023-04-24T14:27:52;11.30;73.80
59505;DHT22;45321;53.200;5.814;2023-04-24T14:30:18;11.30;74.20
59505;DHT22;45321;53.200;5.814;2023-04-24T14:32:44;11.30;74.40
59505;DHT22;45321;53.200;5.814;2023-04-24T14:35:10;11.30;74.50
59505;DHT22;45321;53.200;5.814;2023-04-24T14:37:36;11.30;74.80
59505;DHT22;45321;53.200;5.814;2023-04-24T14:40:03;11.20;75.40
59505;DHT22;45321;53.200;5.814;2023-04-24T14:42:30;11.30;75.60
59505;DHT22;45321;53.200;5.814;2023-04-24T14:44:56;11.30;75.60
59505;DHT22;45321;53.200;5.814;2023-04-24T14:47:22;11.30;75.10
59505;DHT22;45321;53.200;5.814;2023-04-24T14:49:49;11.30;74.70
59505;DHT22;45321;53.200;5.814;2023-04-24T14:52:15;11.30;74.70
59505;DHT22;45321;53.200;5.814;2023-04-24T14:54:42;11.20;75.30
59505;DHT22;45321;53.200;5.814;2023-04-24T14:57:08;11.10;76.70
59505;DHT22;45321;53.200;5.814;2023-04-24T14:59:34;11.00;77.60
59505;DHT22;45321;53.200;5.814;2023-04-24T15:02:00;10.90;78.10
59505;DHT22;45321;53.200;5.814;2023-04-24T15:04:27;11.00;78.20
59505;DHT22;45321;53.200;5.814;2023-04-24T15:06:54;11.00;78.40
59505;DHT22;45321;53.200;5.814;2023-04-24T15:09:21;11.00;78.20
59505;DHT22;45321;53.200;5.814;2023-04-24T15:11:48;11.00;78.80
59505;DHT22;45321;53.200;5.814;2023-04-24T15:14:15;10.90;79.90
59505;DHT22;45321;53.200;5.814;2023-04-24T15:16:41;10.80;80.40
59505;DHT22;45321;53.200;5.814;2023-04-24T15:19:07;10.80;80.70
59505;DHT22;45321;53.200;5.814;2023-04-24T15:21:32;10.80;80.80
59505;DHT22;45321;53.200;5.814;2023-04-24T15:23:58;10.70;80.80
59505;DHT22;45321;53.200;5.814;2023-04-24T15:26:24;10.70;80.70
59505;DHT22;45321;53.200;5.814;2023-04-24T15:28:53;10.70;80.70
59505;DHT22;45321;53.200;5.814;2023-04-24T15:31:19;10.70;80.60
59505;DHT22;45321;53.200;5.814;2023-04-24T15:33:45;10.70;80.60